Time;durP1;ratioP1;P1;durP2;ratioP2;P2;SDS_P1;SDS_P2;PMS_P1;PMS_P2;Temp;Humidity;BMP_temperature;BMP_pressure;BME280_temperature;BME280_humidity;BME280_pressure;Samples;Min_cycle;Max_cycle;Signal;HPM_P1;HPM_P2
2022/01/30 00:01:29;;;;;;;22.98;11.35;;;5.30;99.90;;;;;;4907631;29;20039;-74
2022/01/30 00:03:55;;;;;;;25.27;10.35;;;5.30;99.90;;;;;;4919537;29;20039;-71
2022/01/30 00:06:20;;;;;;;22.65;10.70;;;5.40;99.90;;;;;;4901459;29;20116;-72
2022/01/30 00:08:48;;;;;;;21.98;9.60;;;5.30;99.90;;;;;;4900419;29;20430;-71
2022/01/30 00:11:14;;;;;;;17.85;8.20;;;5.40;99.90;;;;;;4906759;29;20473;-71
2022/01/30 00:13:40;;;;;;;15.82;7.90;;;5.40;99.90;;;;;;4918906;29;20059;-72
2022/01/30 00:16:09;;;;;;;16.83;8.30;;;5.40;99.90;;;;;;4917364;29;20088;-73
2022/01/30 00:18:50;;;;;;;16.27;8.60;;;5.50;99.90;;;;;;4915543;29;20474;-71
2022/01/30 00:24:04;;;;;;;14.88;7.72;;;5.50;99.90;;;;;;4907494;29;20110;-72
2022/01/30 00:26:33;;;;;;;19.20;7.85;;;5.50;99.90;;;;;;4918874;29;20068;-71
2022/01/30 00:28:59;;;;;;;19.27;10.13;;;5.50;99.90;;;;;;4917773;29;20028;-72
2022/01/30 00:31:26;;;;;;;16.52;8.27;;;5.50;99.90;;;;;;4899759;29;20051;-72
2022/01/30 00:33:53;;;;;;;15.82;7.13;;;5.50;99.90;;;;;;4899886;29;20537;-77
2022/01/30 00:36:19;;;;;;;11.38;5.70;;;5.50;99.90;;;;;;4899904;29;20036;-71
2022/01/30 00:38:45;;;;;;;14.60;6.18;;;5.50;99.90;;;;;;4899789;29;20031;-72
2022/01/30 00:41:11;;;;;;;9.85;5.47;;;5.50;99.90;;;;;;4912238;29;20041;-72
2022/01/30 00:43:37;;;;;;;12.77;5.78;;;5.60;99.90;;;;;;4901754;29;20027;-71
2022/01/30 00:46:02;;;;;;;15.10;6.40;;;5.60;99.90;;;;;;4918337;29;20401;-73
2022/01/30 00:48:28;;;;;;;14.82;6.50;;;5.60;99.90;;;;;;4918052;29;20044;-73
2022/01/30 00:50:55;;;;;;;15.07;5.57;;;5.60;99.90;;;;;;4917452;29;20503;-73
2022/01/30 00:53:20;;;;;;;13.80;6.75;;;5.60;99.90;;;;;;4918482;29;20038;-72
2022/01/30 00:55:46;;;;;;;44.47;19.10;;;5.50;99.90;;;;;;4918269;29;20413;-76
2022/01/30 00:58:13;;;;;;;18.52;8.90;;;5.50;99.90;;;;;;4918264;29;20032;-74
2022/01/30 01:00:38;;;;;;;28.48;12.40;;;5.50;99.90;;;;;;4907325;29;20036;-72
2022/01/30 01:03:04;;;;;;;24.00;10.77;;;5.50;99.90;;;;;;4902994;29;20047;-72
2022/01/30 01:05:33;;;;;;;41.67;16.45;;;5.40;99.90;;;;;;4906904;29;20635;-73
2022/01/30 01:08:02;;;;;;;27.33;11.25;;;5.50;99.90;;;;;;4898993;29;20028;-72
2022/01/30 01:13:08;;;;;;;25.80;10.43;;;5.40;99.90;;;;;;4898102;29;20025;-73
2022/01/30 01:23:51;;;;;;;16.70;7.78;;;5.30;99.90;;;;;;4898456;29;20092;-76
2022/01/30 01:26:18;;;;;;;17.20;7.30;;;5.30;99.90;;;;;;4897573;29;20035;-76
2022/01/30 01:28:44;;;;;;;18.40;6.30;;;5.30;99.90;;;;;;4898431;29;20381;-75
2022/01/30 01:31:10;;;;;;;11.05;5.80;;;5.20;99.90;;;;;;4897238;29;20033;-72
2022/01/30 01:36:05;;;;;;;11.18;5.95;;;5.30;99.90;;;;;;4898452;29;20032;-72
2022/01/30 01:38:31;;;;;;;11.45;6.43;;;5.30;99.90;;;;;;4898227;29;20029;-72
2022/01/30 01:40:56;;;;;;;8.32;5.32;;;5.30;99.90;;;;;;4897672;29;20075;-74
2022/01/30 01:43:24;;;;;;;10.70;5.40;;;5.30;99.90;;;;;;4898377;29;20032;-73
2022/01/30 01:45:52;;;;;;;10.30;5.75;;;5.30;99.90;;;;;;4898084;29;20095;-78
2022/01/30 01:48:18;;;;;;;17.80;6.03;;;5.30;99.90;;;;;;4897147;29;20036;-77
2022/01/30 01:50:53;;;;;;;9.48;5.05;;;5.30;99.90;;;;;;4897413;29;20100;-73
2022/01/30 01:53:23;;;;;;;8.25;5.20;;;5.30;99.90;;;;;;4898051;29;20532;-77
2022/01/30 01:55:50;;;;;;;6.97;4.38;;;5.30;99.90;;;;;;4897663;29;20039;-73
2022/01/30 01:58:16;;;;;;;7.53;4.35;;;5.30;99.90;;;;;;4898041;29;20036;-78
2022/01/30 02:00:42;;;;;;;10.10;3.92;;;5.40;99.90;;;;;;4897392;29;20039;-76
2022/01/30 02:03:09;;;;;;;8.85;4.22;;;5.30;99.90;;;;;;4898280;29;20108;-78
2022/01/30 02:05:36;;;;;;;7.47;4.03;;;5.30;99.90;;;;;;4898407;29;20032;-72
2022/01/30 02:10:58;;;;;;;5.90;3.58;;;5.30;99.90;;;;;;4898149;29;20021;-77
2022/01/30 02:24:35;;;;;;;15.50;3.95;;;5.30;99.90;;;;;;4898423;29;20128;-74
2022/01/30 02:27:01;;;;;;;6.15;2.88;;;5.30;99.90;;;;;;4897937;29;20048;-73
2022/01/30 02:29:27;;;;;;;13.23;3.72;;;5.40;99.90;;;;;;4897866;29;20104;-73
2022/01/30 02:31:56;;;;;;;5.72;3.30;;;5.40;99.90;;;;;;4897683;29;20074;-72
2022/01/30 02:34:27;;;;;;;4.80;3.22;;;5.50;99.90;;;;;;4897804;29;20029;-77
2022/01/30 02:36:53;;;;;;;5.22;3.33;;;5.60;99.90;;;;;;4897747;29;20104;-75
2022/01/30 02:39:20;;;;;;;7.57;3.67;;;5.60;99.90;;;;;;4897891;29;20393;-73
2022/01/30 02:41:46;;;;;;;8.80;3.90;;;5.60;99.90;;;;;;4897905;29;20048;-72
2022/01/30 02:46:43;;;;;;;6.00;3.80;;;5.70;99.90;;;;;;4897644;29;20119;-72
2022/01/30 02:51:53;;;;;;;7.15;3.55;;;5.70;99.90;;;;;;4897600;29;20032;-72
2022/01/30 02:54:19;;;;;;;8.32;3.30;;;5.70;99.90;;;;;;4897653;29;20020;-73
2022/01/30 02:56:45;;;;;;;6.72;3.60;;;5.80;99.90;;;;;;4897343;29;20039;-72
2022/01/30 02:59:11;;;;;;;5.93;3.65;;;5.80;99.90;;;;;;4897254;29;20371;-72
2022/01/30 03:01:38;;;;;;;5.55;3.08;;;5.80;99.90;;;;;;4897299;29;20033;-74
2022/01/30 03:04:04;;;;;;;7.75;3.22;;;5.90;99.90;;;;;;4897376;29;20470;-77
2022/01/30 03:06:30;;;;;;;9.07;3.10;;;5.90;99.90;;;;;;4897598;29;20374;-72
2022/01/30 03:08:56;;;;;;;6.47;3.33;;;6.00;99.90;;;;;;4897313;29;20064;-72
2022/01/30 03:11:22;;;;;;;12.57;3.33;;;6.00;99.90;;;;;;4897225;29;20088;-72
2022/01/30 03:13:48;;;;;;;6.45;3.03;;;6.10;99.90;;;;;;4896994;29;20255;-72
2022/01/30 03:16:14;;;;;;;6.40;3.20;;;6.10;99.90;;;;;;4901085;29;20080;-76
2022/01/30 03:18:40;;;;;;;4.45;3.00;;;6.20;99.90;;;;;;4916040;29;20029;-72
2022/01/30 03:21:07;;;;;;;6.72;3.72;;;6.20;99.90;;;;;;4916080;29;20020;-72
2022/01/30 03:23:37;;;;;;;5.25;3.17;;;6.10;99.90;;;;;;4916394;29;20434;-72
2022/01/30 03:26:03;;;;;;;10.38;4.78;;;6.00;99.90;;;;;;4916021;29;20091;-72
2022/01/30 03:28:31;;;;;;;9.90;4.95;;;5.90;99.90;;;;;;4916018;29;20024;-71
2022/01/30 03:31:01;;;;;;;7.82;4.38;;;5.80;99.90;;;;;;4916283;29;20422;-72
2022/01/30 03:33:27;;;;;;;10.32;4.65;;;5.80;99.90;;;;;;4900596;29;20024;-78
2022/01/30 03:35:53;;;;;;;9.43;4.82;;;5.70;99.90;;;;;;4919566;29;20036;-72
2022/01/30 03:38:20;;;;;;;6.10;4.43;;;5.70;99.90;;;;;;4919946;29;20027;-73
2022/01/30 03:40:47;;;;;;;9.68;4.63;;;5.60;99.90;;;;;;4919760;29;20417;-71
2022/01/30 03:43:14;;;;;;;7.30;3.88;;;5.60;99.90;;;;;;4919497;29;20036;-78
2022/01/30 03:45:39;;;;;;;10.05;3.78;;;5.60;99.90;;;;;;4918733;29;20393;-72
2022/01/30 03:48:06;;;;;;;10.32;4.60;;;5.70;99.90;;;;;;4919425;29;20032;-71
2022/01/30 03:50:32;;;;;;;7.60;4.45;;;5.70;99.90;;;;;;4913757;29;20465;-72
2022/01/30 03:52:58;;;;;;;13.73;4.88;;;5.60;99.90;;;;;;4919169;29;20111;-70
2022/01/30 03:55:24;;;;;;;12.18;4.90;;;5.60;99.90;;;;;;4919182;29;20118;-72
2022/01/30 03:57:50;;;;;;;10.27;4.85;;;5.60;99.90;;;;;;4904463;29;20045;-71
2022/01/30 04:00:16;;;;;;;9.30;4.50;;;5.50;99.90;;;;;;4918222;29;20033;-72
2022/01/30 04:02:42;;;;;;;12.45;5.43;;;5.50;99.90;;;;;;4919050;29;20481;-72
2022/01/30 04:05:08;;;;;;;11.55;4.85;;;5.50;99.90;;;;;;4918919;29;20579;-71
2022/01/30 04:07:35;;;;;;;11.77;4.53;;;5.50;99.90;;;;;;4919967;29;20031;-78
2022/01/30 04:10:02;;;;;;;13.85;4.40;;;5.30;99.90;;;;;;4918745;29;20039;-72
2022/01/30 04:12:28;;;;;;;14.15;5.75;;;5.30;99.90;;;;;;4902561;29;20035;-78
2022/01/30 04:14:54;;;;;;;20.65;5.22;;;5.20;99.90;;;;;;4919169;29;20032;-71
2022/01/30 04:17:20;;;;;;;14.10;4.70;;;5.10;99.90;;;;;;4918440;29;20044;-77
2022/01/30 04:19:47;;;;;;;9.32;4.60;;;5.10;99.90;;;;;;4918869;29;20615;-73
2022/01/30 04:22:12;;;;;;;10.35;4.90;;;5.10;99.90;;;;;;4918601;29;20090;-72
2022/01/30 04:24:38;;;;;;;7.57;4.38;;;5.10;99.90;;;;;;4918800;29;20056;-73
2022/01/30 04:27:04;;;;;;;14.40;5.40;;;5.10;99.90;;;;;;4918300;29;20024;-72
2022/01/30 04:29:31;;;;;;;8.10;4.65;;;5.10;99.90;;;;;;4917833;29;20032;-73
2022/01/30 04:31:57;;;;;;;14.93;4.13;;;5.10;99.90;;;;;;4918882;29;20024;-72
2022/01/30 04:34:24;;;;;;;10.00;5.35;;;5.20;99.90;;;;;;4919068;29;20036;-73
2022/01/30 04:37:15;;;;;;;11.88;7.20;;;5.20;99.90;;;;;;4919159;29;20106;-72
2022/01/30 04:40:15;;;;;;;11.73;6.22;;;5.30;99.90;;;;;;4918555;29;20036;-78
2022/01/30 05:08:18;;;;;;;11.52;4.75;;;5.40;99.90;;;;;;4918408;29;20080;-77
2022/01/30 05:10:44;;;;;;;11.90;4.82;;;5.30;99.90;;;;;;4917985;29;20028;-74
2022/01/30 05:13:15;;;;;;;7.75;4.18;;;5.30;99.90;;;;;;4917836;29;20075;-72
2022/01/30 05:15:43;;;;;;;18.35;4.97;;;5.30;99.90;;;;;;4917674;29;20032;-72
2022/01/30 05:18:10;;;;;;;11.45;4.45;;;5.30;99.90;;;;;;4917984;29;20071;-73
2022/01/30 05:20:37;;;;;;;8.88;4.22;;;5.30;99.90;;;;;;4918123;29;20423;-72
2022/01/30 05:23:03;;;;;;;9.43;4.60;;;5.20;99.90;;;;;;4917571;29;20032;-73
2022/01/30 05:25:29;;;;;;;10.35;4.43;;;5.20;99.90;;;;;;4917378;29;20465;-72
2022/01/30 05:27:55;;;;;;;12.75;4.90;;;5.10;99.90;;;;;;4917842;29;20032;-73
2022/01/30 05:30:21;;;;;;;7.97;4.70;;;5.10;99.90;;;;;;4917941;29;20024;-72
2022/01/30 05:32:47;;;;;;;11.73;4.20;;;5.10;99.90;;;;;;4916863;29;20485;-72
2022/01/30 05:35:14;;;;;;;13.85;4.70;;;5.10;99.90;;;;;;4916892;29;20035;-72
2022/01/30 05:37:42;;;;;;;13.02;5.35;;;5.00;99.90;;;;;;4915212;29;20167;-72
2022/01/30 05:40:08;;;;;;;16.65;5.72;;;4.90;99.90;;;;;;4916902;29;20025;-73
2022/01/30 05:42:36;;;;;;;12.43;4.70;;;4.90;99.90;;;;;;4917360;29;20429;-73
2022/01/30 05:45:30;;;;;;;10.43;5.15;;;4.90;99.90;;;;;;4917371;29;20020;-73
2022/01/30 05:48:37;;;;;;;19.77;4.95;;;4.90;99.90;;;;;;4916433;29;20028;-72
2022/01/30 05:50:38;;;;;;;8.20;5.22;;;4.80;99.90;;;;;;4903025;29;20039;-71
2022/01/30 05:53:04;;;;;;;9.05;4.72;;;4.80;99.90;;;;;;4914499;29;20024;-73
2022/01/30 05:55:31;;;;;;;10.25;5.45;;;4.80;99.90;;;;;;4915382;29;20024;-72
2022/01/30 05:57:58;;;;;;;9.48;5.72;;;4.80;99.90;;;;;;4915957;29;20020;-77
2022/01/30 06:00:24;;;;;;;10.55;4.63;;;4.80;99.90;;;;;;4916514;29;20058;-71
2022/01/30 06:02:49;;;;;;;10.23;4.55;;;4.80;99.90;;;;;;4915993;29;20068;-72
2022/01/30 06:05:17;;;;;;;7.88;5.30;;;4.80;99.90;;;;;;4916507;29;20381;-72
2022/01/30 06:07:52;;;;;;;17.02;7.30;;;4.80;99.90;;;;;;4916498;29;20024;-73
2022/01/30 06:10:21;;;;;;;16.75;7.07;;;4.80;99.90;;;;;;4916349;29;20027;-72
2022/01/30 06:12:46;;;;;;;18.52;6.07;;;4.80;99.90;;;;;;4916600;29;20052;-73
2022/01/30 06:15:13;;;;;;;9.98;5.97;;;4.90;99.90;;;;;;4914831;29;20059;-72
2022/01/30 06:17:40;;;;;;;12.98;6.05;;;4.90;99.90;;;;;;4916101;29;20179;-72
2022/01/30 06:20:07;;;;;;;11.40;6.28;;;4.90;99.90;;;;;;4915988;29;20080;-72
2022/01/30 06:22:33;;;;;;;12.90;6.18;;;4.80;99.90;;;;;;4916546;29;20435;-72
2022/01/30 06:24:59;;;;;;;11.25;5.93;;;4.70;99.90;;;;;;4916411;29;20024;-72
2022/01/30 06:27:25;;;;;;;17.05;5.68;;;4.70;99.90;;;;;;4916574;29;20036;-71
2022/01/30 06:29:51;;;;;;;11.68;6.18;;;4.70;99.90;;;;;;4917098;29;20024;-72
2022/01/30 06:32:16;;;;;;;13.15;5.93;;;4.60;99.90;;;;;;4916788;29;20440;-71
2022/01/30 06:34:42;;;;;;;10.15;5.05;;;4.60;99.90;;;;;;4916787;29;20024;-77
2022/01/30 06:37:08;;;;;;;17.98;6.75;;;4.60;99.90;;;;;;4916754;29;20119;-72
2022/01/30 06:39:34;;;;;;;16.58;8.07;;;4.60;99.90;;;;;;4916918;29;20172;-73
2022/01/30 06:42:00;;;;;;;13.90;7.47;;;4.60;99.90;;;;;;4916564;29;20067;-72
2022/01/30 06:44:25;;;;;;;15.68;8.18;;;4.60;99.90;;;;;;4916633;29;20034;-70
2022/01/30 06:46:51;;;;;;;22.30;10.30;;;4.60;99.90;;;;;;4916552;29;20035;-71
2022/01/30 06:49:17;;;;;;;18.45;7.65;;;4.70;99.90;;;;;;4916369;29;20028;-71
2022/01/30 06:51:42;;;;;;;11.82;6.43;;;4.70;99.90;;;;;;4916778;29;20032;-72
2022/01/30 06:54:08;;;;;;;11.68;5.82;;;4.70;99.90;;;;;;4916537;29;20035;-72
2022/01/30 06:56:34;;;;;;;10.77;5.88;;;4.80;99.90;;;;;;4916368;29;20028;-70
2022/01/30 06:58:59;;;;;;;14.60;6.50;;;4.90;99.90;;;;;;4916805;29;20025;-71
2022/01/30 07:01:26;;;;;;;15.40;6.32;;;5.00;99.90;;;;;;4918081;29;20060;-72
2022/01/30 07:03:52;;;;;;;12.73;6.72;;;5.30;99.90;;;;;;4916812;29;20035;-73
2022/01/30 07:06:19;;;;;;;16.13;6.95;;;5.50;99.90;;;;;;4916483;29;20031;-73
2022/01/30 07:08:45;;;;;;;11.63;6.72;;;5.80;99.90;;;;;;4920981;29;20028;-72
2022/01/30 07:11:10;;;;;;;16.20;7.13;;;6.20;99.90;;;;;;4922687;29;20082;-78
2022/01/30 07:13:36;;;;;;;13.43;6.35;;;6.60;99.90;;;;;;4922542;29;20032;-72
2022/01/30 07:16:01;;;;;;;20.25;6.63;;;6.80;99.90;;;;;;4922038;29;20044;-72
2022/01/30 07:18:27;;;;;;;14.13;6.90;;;7.00;99.90;;;;;;4922875;29;20059;-74
2022/01/30 07:20:53;;;;;;;18.77;6.57;;;7.30;99.90;;;;;;4922626;29;20035;-71
2022/01/30 07:23:18;;;;;;;11.32;6.68;;;7.50;99.90;;;;;;4922695;29;20182;-71
2022/01/30 07:25:44;;;;;;;10.95;6.07;;;7.70;99.90;;;;;;4922542;29;20016;-72
2022/01/30 07:28:10;;;;;;;19.02;7.60;;;7.80;99.90;;;;;;4922725;29;20060;-79
2022/01/30 07:30:36;;;;;;;14.57;5.82;;;8.10;99.90;;;;;;4922569;29;20103;-72
2022/01/30 07:33:06;;;;;;;21.27;6.75;;;8.10;99.90;;;;;;4922560;29;20156;-71
2022/01/30 07:35:33;;;;;;;15.20;6.22;;;8.30;99.90;;;;;;4922310;29;20042;-73
2022/01/30 07:37:59;;;;;;;13.30;6.20;;;8.50;99.90;;;;;;4922063;29;20151;-77
2022/01/30 07:40:25;;;;;;;11.55;4.78;;;8.80;99.90;;;;;;4922209;29;20028;-74
2022/01/30 07:42:51;;;;;;;8.30;4.72;;;9.20;99.90;;;;;;4922530;29;20042;-73
2022/01/30 07:45:17;;;;;;;8.18;5.32;;;9.60;99.90;;;;;;4922259;29;20408;-72
2022/01/30 07:47:43;;;;;;;12.50;5.25;;;10.10;99.90;;;;;;4922240;29;20028;-76
2022/01/30 07:50:09;;;;;;;12.30;5.55;;;10.70;99.90;;;;;;4922215;29;20035;-73
2022/01/30 07:52:35;;;;;;;10.85;5.70;;;10.90;99.90;;;;;;4922619;29;20039;-74
2022/01/30 07:55:01;;;;;;;12.20;6.72;;;11.00;99.90;;;;;;4921925;29;20024;-76
2022/01/30 07:57:26;;;;;;;14.07;5.97;;;11.50;99.90;;;;;;4922045;29;20088;-79
2022/01/30 07:59:52;;;;;;;12.30;6.38;;;12.00;99.90;;;;;;4921697;29;20028;-74
2022/01/30 08:02:18;;;;;;;11.18;5.82;;;12.00;99.90;;;;;;4922017;29;20051;-72
2022/01/30 08:04:44;;;;;;;12.02;6.32;;;11.60;99.90;;;;;;4922459;29;20024;-74
2022/01/30 08:07:09;;;;;;;18.75;6.93;;;11.70;99.90;;;;;;4922092;29;20090;-76
2022/01/30 08:09:35;;;;;;;13.98;5.90;;;11.50;99.90;;;;;;4921768;29;20028;-74
2022/01/30 08:12:01;;;;;;;13.43;6.18;;;11.80;99.90;;;;;;4922109;29;20114;-74
2022/01/30 08:14:26;;;;;;;15.30;6.32;;;11.90;99.90;;;;;;4922083;29;20032;-77
2022/01/30 08:16:52;;;;;;;14.45;6.10;;;12.00;99.90;;;;;;4922075;29;20052;-73
2022/01/30 08:19:20;;;;;;;159.38;55.38;;;12.10;99.90;;;;;;4919981;29;20527;-76
2022/01/30 08:21:47;;;;;;;18.77;10.50;;;12.40;99.90;;;;;;4919214;29;20405;-76
2022/01/30 08:24:13;;;;;;;19.42;11.68;;;12.70;99.90;;;;;;4919294;29;20504;-71
2022/01/30 08:26:39;;;;;;;15.10;7.45;;;13.30;99.90;;;;;;4919192;29;20060;-76
2022/01/30 08:29:04;;;;;;;12.63;7.47;;;13.70;99.90;;;;;;4915191;29;20035;-78
2022/01/30 08:31:30;;;;;;;10.13;5.00;;;13.40;99.90;;;;;;4918988;29;20024;-77
2022/01/30 08:33:56;;;;;;;18.65;11.50;;;14.10;99.90;;;;;;4914609;29;20106;-75
2022/01/30 08:36:21;;;;;;;12.93;5.97;;;14.70;99.90;;;;;;4914525;29;20036;-76
2022/01/30 08:38:47;;;;;;;11.55;6.13;;;15.20;99.90;;;;;;4915307;29;20028;-78
2022/01/30 08:41:13;;;;;;;15.75;6.10;;;15.40;99.90;;;;;;4917631;29;20067;-75
2022/01/30 08:43:38;;;;;;;14.45;5.65;;;15.50;99.90;;;;;;4914652;29;20074;-74
2022/01/30 08:46:04;;;;;;;16.55;12.05;;;16.10;99.90;;;;;;4905567;29;20024;-74
2022/01/30 08:48:32;;;;;;;49.95;31.92;;;16.30;99.90;;;;;;4905432;29;20032;-74
2022/01/30 08:50:57;;;;;;;11.57;5.50;;;16.30;99.90;;;;;;4913497;29;20380;-80
2022/01/30 08:53:23;;;;;;;13.57;7.03;;;16.70;99.90;;;;;;4905270;29;20028;-78
2022/01/30 08:55:49;;;;;;;10.25;6.13;;;17.10;99.90;;;;;;4906519;29;20032;-78
2022/01/30 08:58:15;;;;;;;9.48;5.22;;;17.30;99.20;;;;;;4907380;29;20156;-82
2022/01/30 09:00:43;;;;;;;9.50;5.25;;;17.70;98.50;;;;;;4907177;29;20039;-78
2022/01/30 09:03:10;;;;;;;9.18;5.22;;;18.20;97.40;;;;;;4907494;29;20040;-80
2022/01/30 09:05:37;;;;;;;11.00;5.88;;;18.60;96.50;;;;;;4906231;29;20024;-79
2022/01/30 09:08:04;;;;;;;10.55;6.05;;;18.60;95.50;;;;;;4904367;29;20025;-80
2022/01/30 09:10:31;;;;;;;13.55;6.05;;;18.50;95.80;;;;;;4906064;29;20037;-81
2022/01/30 09:12:57;;;;;;;15.73;5.35;;;19.10;95.00;;;;;;4904196;29;20020;-81
2022/01/30 09:15:22;;;;;;;22.60;13.63;;;19.70;93.80;;;;;;4893282;29;20038;-76
2022/01/30 09:17:51;;;;;;;13.05;5.82;;;20.00;93.60;;;;;;4912861;29;20087;-78
2022/01/30 09:20:17;;;;;;;19.45;6.30;;;20.10;92.70;;;;;;4910371;29;20160;-82
2022/01/30 09:22:43;;;;;;;12.30;6.25;;;19.80;92.20;;;;;;4910259;29;20067;-81
2022/01/30 09:25:09;;;;;;;13.35;6.80;;;19.20;93.00;;;;;;4911828;29;20048;-81
2022/01/30 09:27:35;;;;;;;14.07;6.55;;;19.20;92.70;;;;;;4907173;29;20043;-79
2022/01/30 09:30:03;;;;;;;12.75;6.80;;;18.80;93.10;;;;;;4910631;29;20400;-78
2022/01/30 09:32:28;;;;;;;12.88;6.38;;;18.40;93.50;;;;;;4910594;29;20503;-80
2022/01/30 09:34:54;;;;;;;14.02;7.38;;;18.20;93.70;;;;;;4904554;29;20036;-80
2022/01/30 09:37:20;;;;;;;17.35;7.57;;;17.60;94.80;;;;;;4902000;29;20025;-78
2022/01/30 09:39:46;;;;;;;14.80;7.70;;;17.10;95.50;;;;;;4899689;29;20024;-78
2022/01/30 09:42:12;;;;;;;25.25;12.68;;;16.60;96.40;;;;;;4895368;29;20087;-81
2022/01/30 09:44:40;;;;;;;18.45;7.55;;;16.60;97.00;;;;;;4899458;29;20160;-76
2022/01/30 09:47:17;;;;;;;25.50;15.05;;;16.60;97.00;;;;;;4899981;29;20394;-79
2022/01/30 09:49:52;;;;;;;24.67;13.30;;;16.60;96.80;;;;;;4899634;29;20029;-73
2022/01/30 09:52:20;;;;;;;17.15;8.38;;;16.50;97.70;;;;;;4897148;29;20073;-75
2022/01/30 09:54:47;;;;;;;15.68;8.60;;;16.60;97.60;;;;;;4897633;29;20374;-80
2022/01/30 09:57:14;;;;;;;15.75;8.05;;;16.40;97.90;;;;;;4897482;29;20027;-79
2022/01/30 09:59:40;;;;;;;17.88;8.35;;;16.50;98.00;;;;;;4901408;29;20038;-78
2022/01/30 10:02:08;;;;;;;12.75;7.90;;;16.90;98.00;;;;;;4900247;29;20037;-77
2022/01/30 10:04:35;;;;;;;20.88;8.75;;;17.00;97.60;;;;;;4910118;29;20028;-78
2022/01/30 10:07:12;;;;;;;19.63;8.40;;;16.90;98.10;;;;;;4912506;29;20035;-81
2022/01/30 10:09:44;;;;;;;15.40;8.82;;;17.20;97.70;;;;;;4908375;29;20020;-76
2022/01/30 10:12:22;;;;;;;22.25;9.98;;;17.60;97.40;;;;;;4895328;29;20477;-76
2022/01/30 10:15:16;;;;;;;17.92;8.52;;;17.80;96.70;;;;;;4898665;29;20060;-76
2022/01/30 10:17:48;;;;;;;17.55;9.48;;;17.90;96.90;;;;;;4896293;29;20057;-75
2022/01/30 10:20:22;;;;;;;16.52;8.88;;;18.00;96.90;;;;;;4903251;29;20024;-76
2022/01/30 10:22:56;;;;;;;19.83;11.02;;;18.20;96.60;;;;;;4896647;29;20493;-77
2022/01/30 10:25:28;;;;;;;24.58;11.77;;;18.40;95.80;;;;;;4883076;29;20036;-75
2022/01/30 10:28:13;;;;;;;22.70;11.32;;;18.30;95.80;;;;;;4902261;29;20504;-76
2022/01/30 10:31:00;;;;;;;23.42;11.73;;;18.50;95.30;;;;;;4900062;29;20024;-75
2022/01/30 10:33:46;;;;;;;27.67;12.45;;;18.60;95.30;;;;;;4880596;29;20033;-74
2022/01/30 10:36:17;;;;;;;28.75;12.02;;;18.70;94.80;;;;;;4901535;29;20056;-77
2022/01/30 10:38:52;;;;;;;28.13;13.38;;;18.90;94.60;;;;;;4915144;29;20107;-75
2022/01/30 10:41:21;;;;;;;21.83;12.02;;;18.80;94.30;;;;;;4916424;29;20397;-76
2022/01/30 10:44:00;;;;;;;42.33;12.95;;;18.50;94.90;;;;;;4915679;29;20034;-75
2022/01/30 10:46:27;;;;;;;22.23;12.07;;;18.50;94.90;;;;;;4916397;29;20062;-78
2022/01/30 10:49:01;;;;;;;36.45;13.55;;;18.50;95.20;;;;;;4915138;29;20028;-74
2022/01/30 10:51:30;;;;;;;26.17;13.55;;;18.60;94.90;;;;;;4916626;29;20576;-76
2022/01/30 10:53:57;;;;;;;24.73;13.82;;;18.70;94.70;;;;;;4905338;29;20031;-75
2022/01/30 10:56:27;;;;;;;34.97;15.00;;;18.70;94.80;;;;;;4907727;29;20084;-76
2022/01/30 10:59:12;;;;;;;29.58;15.27;;;18.80;94.60;;;;;;4899623;29;20032;-82
2022/01/30 11:01:46;;;;;;;54.33;17.35;;;18.70;94.50;;;;;;4896883;29;20045;-76
2022/01/30 11:04:29;;;;;;;31.02;13.35;;;18.50;94.30;;;;;;4908984;29;20036;-77
2022/01/30 11:06:58;;;;;;;32.33;15.70;;;18.50;94.30;;;;;;4886752;29;20401;-75
2022/01/30 11:09:32;;;;;;;34.28;16.13;;;18.60;94.90;;;;;;4908398;29;20372;-79
2022/01/30 11:12:02;;;;;;;23.75;13.50;;;18.60;94.90;;;;;;4903658;29;20489;-75
2022/01/30 11:14:40;;;;;;;23.48;12.68;;;18.80;94.80;;;;;;4898693;29;20355;-75
2022/01/30 11:17:08;;;;;;;28.02;14.65;;;18.80;95.10;;;;;;4911590;29;20059;-75
2022/01/30 11:19:42;;;;;;;28.40;14.45;;;19.10;94.60;;;;;;4899832;29;21344;-77
2022/01/30 11:22:14;;;;;;;34.90;15.45;;;19.20;94.20;;;;;;4896398;29;20044;-75
2022/01/30 11:24:48;;;;;;;27.25;15.05;;;19.20;93.80;;;;;;4896319;29;20028;-77
2022/01/30 11:27:20;;;;;;;29.13;15.23;;;19.00;93.90;;;;;;4898928;29;20088;-78
2022/01/30 11:29:46;;;;;;;;;;;19.00;93.90;;;;;;4902637;29;20739;-73
2022/01/30 11:32:13;;;;;;;34.88;15.77;;;18.70;93.90;;;;;;4906660;29;20355;-75
2022/01/30 11:34:40;;;;;;;34.00;16.52;;;18.30;94.00;;;;;;4898913;29;20402;-77
2022/01/30 11:37:08;;;;;;;31.55;16.58;;;18.30;94.10;;;;;;4896644;29;20025;-74
2022/01/30 11:39:37;;;;;;;31.40;16.35;;;18.20;94.00;;;;;;4906581;29;20067;-79
2022/01/30 11:42:13;;;;;;;31.70;16.77;;;18.20;94.10;;;;;;4898433;29;20438;-77
2022/01/30 11:44:40;;;;;;;34.58;17.48;;;18.20;94.20;;;;;;4896530;29;20553;-75
2022/01/30 11:47:07;;;;;;;36.28;17.95;;;18.20;94.00;;;;;;4895523;29;20032;-75
2022/01/30 11:49:49;;;;;;;45.22;19.00;;;18.10;93.80;;;;;;4896672;29;20116;-74
2022/01/30 11:52:16;;;;;;;;;;;18.00;94.10;;;;;;4897183;29;20088;-73
2022/01/30 11:54:43;;;;;;;36.05;16.52;;;17.90;94.60;;;;;;4897341;29;20005;-77
2022/01/30 11:57:21;;;;;;;29.90;15.93;;;18.10;94.80;;;;;;4899785;29;20032;-73
2022/01/30 11:59:47;;;;;;;29.38;16.33;;;17.90;95.20;;;;;;4897795;29;20508;-74
2022/01/30 12:02:29;;;;;;;34.38;16.52;;;17.70;96.00;;;;;;4899346;29;20504;-76
2022/01/30 12:05:01;;;;;;;26.35;16.02;;;17.60;96.30;;;;;;4899466;29;20111;-75
2022/01/30 12:07:35;;;;;;;29.40;16.75;;;17.40;96.80;;;;;;4899962;29;20085;-80
2022/01/30 12:10:16;;;;;;;27.67;16.20;;;17.10;97.40;;;;;;4900436;29;20064;-73
2022/01/30 12:13:01;;;;;;;35.83;17.63;;;16.80;97.90;;;;;;4899661;29;20165;-75
2022/01/30 12:15:39;;;;;;;30.75;15.68;;;16.30;98.70;;;;;;4898025;29;20366;-74
2022/01/30 12:18:12;;;;;;;30.42;16.55;;;16.00;99.30;;;;;;4882308;29;20056;-79
2022/01/30 12:20:57;;;;;;;28.35;16.30;;;15.80;99.90;;;;;;4881915;29;20028;-73
2022/01/30 12:23:29;;;;;;;28.45;16.00;;;15.50;99.90;;;;;;4897618;29;20047;-74
2022/01/30 12:26:04;;;;;;;28.77;17.23;;;15.30;99.90;;;;;;4898659;29;20040;-75
2022/01/30 12:28:44;;;;;;;34.28;17.10;;;15.10;99.90;;;;;;4879768;29;20040;-76
2022/01/30 12:31:34;;;;;;;28.13;16.73;;;14.90;99.90;;;;;;4886901;29;20031;-75
2022/01/30 12:34:03;;;;;;;35.75;18.25;;;14.50;99.90;;;;;;4879893;29;20363;-73
2022/01/30 12:36:33;;;;;;;34.40;19.05;;;14.40;99.90;;;;;;4879547;29;20021;-72
2022/01/30 12:39:02;;;;;;;33.13;18.60;;;14.30;99.90;;;;;;4879338;29;20025;-72
2022/01/30 12:41:30;;;;;;;32.67;17.88;;;14.20;99.90;;;;;;4879470;29;20037;-72
2022/01/30 12:43:58;;;;;;;30.42;17.92;;;14.20;99.90;;;;;;4879259;29;20502;-78
2022/01/30 12:46:27;;;;;;;32.60;18.63;;;14.20;99.90;;;;;;4883829;29;20029;-76
2022/01/30 12:49:05;;;;;;;42.75;18.67;;;14.30;99.90;;;;;;4880400;29;20562;-73
2022/01/30 12:51:32;;;;;;;38.15;18.25;;;14.10;99.90;;;;;;4879362;29;20439;-71
2022/01/30 12:53:58;;;;;;;36.67;19.73;;;14.10;99.90;;;;;;4880305;29;20025;-72
2022/01/30 12:56:25;;;;;;;35.97;19.45;;;14.10;99.90;;;;;;4879638;29;20025;-73
2022/01/30 12:58:55;;;;;;;37.47;19.65;;;13.90;99.90;;;;;;4879750;29;20101;-73
2022/01/30 13:01:26;;;;;;;32.88;18.65;;;13.80;99.90;;;;;;4879807;29;20119;-74
2022/01/30 13:04:03;;;;;;;35.70;19.55;;;13.70;99.90;;;;;;4878789;29;20433;-75
2022/01/30 13:06:44;;;;;;;33.65;17.25;;;13.60;99.90;;;;;;4881344;29;20025;-74
2022/01/30 13:09:10;;;;;;;52.45;19.05;;;13.50;99.90;;;;;;4891514;29;20080;-75
2022/01/30 13:11:37;;;;;;;36.28;20.00;;;13.50;99.90;;;;;;4881451;29;20067;-77
2022/01/30 13:14:08;;;;;;;33.75;18.13;;;13.40;99.90;;;;;;4879286;29;20519;-80
2022/01/30 13:16:50;;;;;;;34.65;18.88;;;13.40;99.90;;;;;;4878574;29;20507;-74
2022/01/30 13:19:28;;;;;;;33.40;19.08;;;13.20;99.90;;;;;;4877586;29;20459;-76
2022/01/30 13:21:54;;;;;;;33.20;19.98;;;13.10;99.90;;;;;;4879363;29;20068;-75
2022/01/30 13:24:20;;;;;;;31.95;19.75;;;13.10;99.90;;;;;;4879413;29;20057;-78
2022/01/30 13:26:48;;;;;;;32.85;18.27;;;13.00;99.90;;;;;;4883647;29;20080;-77
2022/01/30 13:29:19;;;;;;;40.95;19.10;;;12.90;99.90;;;;;;4897999;29;20101;-77
2022/01/30 13:31:49;;;;;;;35.30;18.13;;;12.80;99.90;;;;;;4898429;29;20508;-76
2022/01/30 13:34:21;;;;;;;32.70;18.58;;;12.80;99.90;;;;;;4895952;29;20067;-77
2022/01/30 13:36:54;;;;;;;;;;;12.80;99.90;;;;;;4898367;29;20032;-77
2022/01/30 13:39:29;;;;;;;28.77;16.30;;;12.70;99.90;;;;;;4879263;29;20242;-77
2022/01/30 13:42:13;;;;;;;38.78;17.75;;;12.60;99.90;;;;;;4879024;29;20116;-77
2022/01/30 13:45:04;;;;;;;32.78;17.15;;;12.50;99.90;;;;;;4879120;29;20056;-77
2022/01/30 13:47:30;;;;;;;32.75;18.25;;;12.40;99.90;;;;;;4881401;29;20115;-77
2022/01/30 13:49:56;;;;;;;37.65;19.35;;;12.30;99.90;;;;;;4893208;29;20119;-75